Time;durP1;ratioP1;P1;durP2;ratioP2;P2;SDS_P1;SDS_P2;PMS_P1;PMS_P2;Temp;Humidity;BMP_temperature;BMP_pressure;BME280_temperature;BME280_humidity;BME280_pressure;Samples;Min_cycle;Max_cycle;Signal;HPM_P1;HPM_P2
2021/12/13 00:01:50;;;;;;;61.67;29.07;;;;;;;;;;5092977;28;20436;-66
2021/12/13 00:04:19;;;;;;;60.10;30.80;;;;;;;;;;5094234;28;20430;-64
2021/12/13 00:06:47;;;;;;;62.17;30.37;;;;;;;;;;5097187;28;20573;-64
2021/12/13 00:09:17;;;;;;;86.30;35.50;;;;;;;;;;5097294;28;20996;-64
2021/12/13 00:11:47;;;;;;;72.13;33.43;;;;;;;;;;5097021;28;20445;-64
2021/12/13 00:14:16;;;;;;;72.93;33.13;;;;;;;;;;5096634;28;21017;-64
2021/12/13 00:16:50;;;;;;;68.45;29.70;;;;;;;;;;5096504;28;20554;-65
2021/12/13 00:19:20;;;;;;;70.43;29.27;;;;;;;;;;5096656;28;20272;-64
2021/12/13 00:21:48;;;;;;;66.35;30.85;;;;;;;;;;5097199;28;20474;-64
2021/12/13 00:24:22;;;;;;;68.53;30.73;;;;;;;;;;5096818;28;20228;-65
2021/12/13 00:26:51;;;;;;;66.80;30.10;;;;;;;;;;5096979;28;20554;-64
2021/12/13 00:29:20;;;;;;;82.33;34.60;;;;;;;;;;5096795;28;20522;-64
2021/12/13 00:31:49;;;;;;;72.13;31.70;;;;;;;;;;5096812;28;20519;-64
2021/12/13 00:34:31;;;;;;;80.07;32.13;;;;;;;;;;5096647;28;20538;-65
2021/12/13 00:37:02;;;;;;;76.87;30.83;;;;;;;;;;5096993;28;20526;-65
2021/12/13 00:39:32;;;;;;;72.03;31.07;;;;;;;;;;5096588;28;20459;-64
2021/12/13 00:42:02;;;;;;;71.30;29.90;;;;;;;;;;5096170;28;20542;-65
2021/12/13 00:44:31;;;;;;;101.70;33.73;;;;;;;;;;5096299;28;20535;-64
2021/12/13 00:47:02;;;;;;;72.27;34.60;;;;;;;;;;5096597;28;20562;-65
2021/12/13 00:49:30;;;;;;;58.67;30.57;;;;;;;;;;5096437;28;20515;-65
2021/12/13 00:51:59;;;;;;;64.90;29.27;;;;;;;;;;5096334;28;20475;-65
2021/12/13 00:54:27;;;;;;;64.00;29.77;;;;;;;;;;5095899;28;20519;-64
2021/12/13 00:57:13;;;;;;;53.77;28.80;;;;;;;;;;5096269;28;20921;-64
2021/12/13 00:59:43;;;;;;;59.23;30.83;;;;;;;;;;5095868;28;21007;-65
2021/12/13 01:02:13;;;;;;;78.33;32.73;;;;;;;;;;5096055;28;20561;-64
2021/12/13 01:04:56;;;;;;;77.37;33.50;;;;;;;;;;5096024;28;20440;-64
2021/12/13 01:07:38;;;;;;;69.17;31.43;;;;;;;;;;5095634;28;20551;-64
2021/12/13 01:10:24;;;;;;;62.57;30.80;;;;;;;;;;5079255;28;20448;-64
2021/12/13 01:12:52;;;;;;;59.60;31.53;;;;;;;;;;5095558;28;20446;-64
2021/12/13 01:15:29;;;;;;;63.43;32.07;;;;;;;;;;5094977;28;20566;-64
2021/12/13 01:18:04;;;;;;;73.57;31.97;;;;;;;;;;5096207;28;20438;-64
2021/12/13 01:20:43;;;;;;;60.23;30.30;;;;;;;;;;5095544;28;20433;-64
2021/12/13 01:23:15;;;;;;;69.07;31.07;;;;;;;;;;5095788;28;20501;-65
2021/12/13 01:25:47;;;;;;;58.83;30.60;;;;;;;;;;5095869;28;20463;-64
2021/12/13 01:28:18;;;;;;;61.97;29.50;;;;;;;;;;5096157;28;20482;-64
2021/12/13 01:30:49;;;;;;;65.90;29.20;;;;;;;;;;5095300;28;20955;-64
2021/12/13 01:33:18;;;;;;;62.23;30.30;;;;;;;;;;5095839;28;20836;-64
2021/12/13 01:35:47;;;;;;;54.07;29.73;;;;;;;;;;5095449;28;20447;-64
2021/12/13 01:38:16;;;;;;;50.10;27.13;;;;;;;;;;5095384;28;20538;-64
2021/12/13 01:40:46;;;;;;;55.17;28.67;;;;;;;;;;5095062;28;20534;-64
2021/12/13 01:43:15;;;;;;;48.77;27.70;;;;;;;;;;5095278;28;20865;-64
2021/12/13 01:45:43;;;;;;;53.77;29.83;;;;;;;;;;5094893;28;20888;-64
2021/12/13 01:48:18;;;;;;;56.73;27.53;;;;;;;;;;5095201;28;20567;-64
2021/12/13 01:50:49;;;;;;;62.37;28.77;;;;;;;;;;5095581;28;20513;-64
2021/12/13 01:53:17;;;;;;;51.87;26.40;;;;;;;;;;5095690;28;20779;-64
2021/12/13 01:55:47;;;;;;;50.37;26.20;;;;;;;;;;5094749;28;20475;-64
2021/12/13 01:58:35;;;;;;;61.17;30.30;;;;;;;;;;5094723;28;20506;-64
2021/12/13 02:01:12;;;;;;;55.90;29.13;;;;;;;;;;5095352;28;20437;-64
2021/12/13 02:03:54;;;;;;;61.73;32.03;;;;;;;;;;5094674;28;20427;-65
2021/12/13 02:06:34;;;;;;;63.07;30.83;;;;;;;;;;5092563;28;20804;-64
2021/12/13 02:09:05;;;;;;;53.70;30.47;;;;;;;;;;5095643;28;20433;-63
2021/12/13 02:11:33;;;;;;;56.17;29.00;;;;;;;;;;5094450;28;20477;-63
2021/12/13 02:14:09;;;;;;;48.47;27.13;;;;;;;;;;5094243;28;20482;-63
2021/12/13 02:16:58;;;;;;;50.87;28.13;;;;;;;;;;5095733;28;20967;-64
2021/12/13 02:19:31;;;;;;;47.93;25.30;;;;;;;;;;5095123;28;20462;-63
2021/12/13 02:22:05;;;;;;;49.30;27.55;;;;;;;;;;5094866;28;20838;-64
2021/12/13 02:24:36;;;;;;;47.42;23.63;;;;;;;;;;5095086;28;20189;-64
2021/12/13 02:27:06;;;;;;;44.83;27.70;;;;;;;;;;5093319;28;20260;-64
2021/12/13 02:29:37;;;;;;;48.77;26.90;;;;;;;;;;5094695;28;20832;-65
2021/12/13 02:32:05;;;;;;;49.73;27.13;;;;;;;;;;5095233;28;20428;-64
2021/12/13 02:34:33;;;;;;;42.27;23.10;;;;;;;;;;5093998;28;20492;-64
2021/12/13 02:37:01;;;;;;;50.97;26.40;;;;;;;;;;5094823;28;20934;-64
2021/12/13 02:39:32;;;;;;;38.80;23.27;;;;;;;;;;5093974;28;20451;-64
2021/12/13 02:42:02;;;;;;;39.87;21.63;;;;;;;;;;5094906;28;20451;-64
2021/12/13 02:44:30;;;;;;;47.73;24.27;;;;;;;;;;5094203;28;20522;-64
2021/12/13 02:46:59;;;;;;;41.43;24.47;;;;;;;;;;5094048;28;20565;-64
2021/12/13 02:49:26;;;;;;;43.33;24.47;;;;;;;;;;5094066;28;20489;-65
2021/12/13 02:51:56;;;;;;;44.83;25.97;;;;;;;;;;5093773;28;20848;-65
2021/12/13 02:54:24;;;;;;;42.57;25.37;;;;;;;;;;5094014;28;20526;-64
2021/12/13 02:56:53;;;;;;;42.37;23.10;;;;;;;;;;5094010;28;20471;-63
2021/12/13 02:59:22;;;;;;;42.23;24.87;;;;;;;;;;5093882;28;20526;-65
2021/12/13 03:01:51;;;;;;;39.87;25.60;;;;;;;;;;5094028;28;20993;-65
2021/12/13 03:04:19;;;;;;;36.03;21.43;;;;;;;;;;5094030;28;20550;-64
2021/12/13 03:06:52;;;;;;;40.97;23.60;;;;;;;;;;5093737;28;20436;-64
2021/12/13 03:09:21;;;;;;;45.90;26.57;;;;;;;;;;5094246;28;20942;-64
2021/12/13 03:11:49;;;;;;;44.23;26.63;;;;;;;;;;5093748;28;20439;-64
2021/12/13 03:14:20;;;;;;;39.77;24.53;;;;;;;;;;5093720;28;20846;-64
2021/12/13 03:16:50;;;;;;;49.50;25.53;;;;;;;;;;5094063;28;21029;-64
2021/12/13 03:19:23;;;;;;;40.90;25.93;;;;;;;;;;5093391;28;20534;-64
2021/12/13 03:22:16;;;;;;;45.30;26.75;;;;;;;;;;5093443;28;20431;-64
2021/12/13 03:24:52;;;;;;;47.27;25.17;;;;;;;;;;5093398;28;20221;-64
2021/12/13 03:27:27;;;;;;;51.17;27.70;;;;;;;;;;5094110;28;20478;-64
2021/12/13 03:30:00;;;;;;;45.17;26.17;;;;;;;;;;5093655;28;20434;-64
2021/12/13 03:32:35;;;;;;;39.38;24.25;;;;;;;;;;5093285;28;20529;-65
2021/12/13 03:35:05;;;;;;;43.90;26.38;;;;;;;;;;5093280;28;20216;-65
2021/12/13 03:37:33;;;;;;;47.87;28.07;;;;;;;;;;5093592;28;20367;-64
2021/12/13 03:40:01;;;;;;;48.53;27.53;;;;;;;;;;5097170;28;20997;-64
2021/12/13 03:42:30;;;;;;;44.97;27.20;;;;;;;;;;5097290;28;20531;-64
2021/12/13 03:44:59;;;;;;;51.37;28.63;;;;;;;;;;5097632;28;20534;-64
2021/12/13 03:47:28;;;;;;;47.75;28.75;;;;;;;;;;5098083;28;20503;-63
2021/12/13 03:49:59;;;;;;;46.07;28.30;;;;;;;;;;5097431;28;20215;-64
2021/12/13 03:52:27;;;;;;;57.77;31.73;;;;;;;;;;5097752;28;20428;-64
2021/12/13 03:54:56;;;;;;;44.77;28.57;;;;;;;;;;5097347;28;20860;-64
2021/12/13 03:57:23;;;;;;;47.80;27.40;;;;;;;;;;5096950;28;20546;-65
2021/12/13 03:59:52;;;;;;;48.63;27.87;;;;;;;;;;5097277;28;20527;-64
2021/12/13 04:02:23;;;;;;;52.23;30.17;;;;;;;;;;5097264;28;20534;-64
2021/12/13 04:04:51;;;;;;;46.47;28.23;;;;;;;;;;5097263;28;20470;-64
2021/12/13 04:07:21;;;;;;;54.43;31.70;;;;;;;;;;5097060;28;20474;-64
2021/12/13 04:09:50;;;;;;;48.90;30.80;;;;;;;;;;5097407;28;20455;-64
2021/12/13 04:12:18;;;;;;;55.90;31.67;;;;;;;;;;5097216;28;20467;-64
2021/12/13 04:14:49;;;;;;;50.70;30.83;;;;;;;;;;5096534;28;20447;-64
2021/12/13 04:17:23;;;;;;;51.20;30.13;;;;;;;;;;5097505;28;20455;-65
2021/12/13 04:19:53;;;;;;;54.17;33.50;;;;;;;;;;5097152;28;20809;-64
2021/12/13 04:22:24;;;;;;;55.60;31.93;;;;;;;;;;5097013;28;20482;-65
2021/12/13 04:24:53;;;;;;;48.00;31.70;;;;;;;;;;5096922;28;20431;-64
2021/12/13 04:27:22;;;;;;;55.07;32.47;;;;;;;;;;5096719;28;20578;-64
2021/12/13 04:29:50;;;;;;;51.17;30.67;;;;;;;;;;5096751;28;20497;-65
2021/12/13 04:32:20;;;;;;;54.43;33.30;;;;;;;;;;5096353;28;20467;-65
2021/12/13 04:34:48;;;;;;;54.27;32.63;;;;;;;;;;5096580;28;20537;-65
2021/12/13 04:37:16;;;;;;;48.23;31.40;;;;;;;;;;5096586;28;20440;-65
2021/12/13 04:39:46;;;;;;;48.07;30.83;;;;;;;;;;5096592;28;20525;-65
2021/12/13 04:42:14;;;;;;;54.50;33.17;;;;;;;;;;5096779;28;20446;-64
2021/12/13 04:44:49;;;;;;;55.27;34.07;;;;;;;;;;5096272;28;20490;-64
2021/12/13 04:47:18;;;;;;;51.43;31.70;;;;;;;;;;5096778;28;20489;-65
2021/12/13 04:49:47;;;;;;;53.17;31.17;;;;;;;;;;5095679;28;20461;-65
2021/12/13 04:52:16;;;;;;;55.87;33.10;;;;;;;;;;5095867;28;20435;-65
2021/12/13 04:54:46;;;;;;;50.97;32.50;;;;;;;;;;5095923;28;20440;-65
2021/12/13 04:57:13;;;;;;;52.90;30.90;;;;;;;;;;5096672;28;20471;-65
2021/12/13 04:59:41;;;;;;;52.83;32.23;;;;;;;;;;5096585;28;20870;-65
2021/12/13 05:02:09;;;;;;;46.70;31.03;;;;;;;;;;5096043;28;20479;-65
2021/12/13 05:04:37;;;;;;;52.63;30.63;;;;;;;;;;5096202;28;20535;-65
2021/12/13 05:07:06;;;;;;;53.40;30.40;;;;;;;;;;5096255;28;20532;-65
2021/12/13 05:09:33;;;;;;;48.47;31.10;;;;;;;;;;5095687;28;20442;-65
2021/12/13 05:12:09;;;;;;;53.13;31.20;;;;;;;;;;5095921;28;20519;-65
2021/12/13 05:14:37;;;;;;;54.37;31.13;;;;;;;;;;5096422;28;20450;-65
2021/12/13 05:17:08;;;;;;;55.37;34.00;;;;;;;;;;5096716;28;20460;-65
2021/12/13 05:19:39;;;;;;;58.13;32.67;;;;;;;;;;5095490;28;20948;-65
2021/12/13 05:22:07;;;;;;;54.50;32.70;;;;;;;;;;5094585;28;20550;-65
2021/12/13 05:24:36;;;;;;;49.87;32.30;;;;;;;;;;5094527;28;20523;-65
2021/12/13 05:27:05;;;;;;;50.80;32.90;;;;;;;;;;5094936;28;20798;-64
2021/12/13 05:29:35;;;;;;;55.80;33.47;;;;;;;;;;5094577;28;20475;-64
2021/12/13 05:32:06;;;;;;;54.97;33.87;;;;;;;;;;5094772;28;20459;-64
2021/12/13 05:34:41;;;;;;;51.37;31.20;;;;;;;;;;5094547;28;20468;-65
2021/12/13 05:37:09;;;;;;;53.60;32.93;;;;;;;;;;5094892;28;20408;-64
2021/12/13 05:39:37;;;;;;;54.83;31.43;;;;;;;;;;5094604;28;20522;-65
2021/12/13 05:42:07;;;;;;;59.07;30.80;;;;;;;;;;5094645;28;20466;-64
2021/12/13 05:44:37;;;;;;;52.87;31.90;;;;;;;;;;5094150;28;20479;-65
2021/12/13 05:47:07;;;;;;;55.03;33.43;;;;;;;;;;5094318;28;20526;-64
2021/12/13 05:49:37;;;;;;;63.63;34.10;;;;;;;;;;5094164;28;20571;-65
2021/12/13 05:52:08;;;;;;;52.17;33.43;;;;;;;;;;5093522;28;20471;-65
2021/12/13 05:54:36;;;;;;;52.93;33.63;;;;;;;;;;5094307;28;20503;-64
2021/12/13 05:57:09;;;;;;;57.43;33.67;;;;;;;;;;5094279;28;20527;-65
2021/12/13 05:59:39;;;;;;;47.63;28.80;;;;;;;;;;5094099;28;20515;-65
2021/12/13 06:02:11;;;;;;;54.03;33.17;;;;;;;;;;5093752;28;20432;-65
2021/12/13 06:04:40;;;;;;;54.60;32.17;;;;;;;;;;5094467;28;20428;-65
2021/12/13 06:07:17;;;;;;;50.83;32.23;;;;;;;;;;5093600;28;20972;-65
2021/12/13 06:09:50;;;;;;;41.80;29.53;;;;;;;;;;5094039;28;20474;-65
2021/12/13 06:12:26;;;;;;;51.93;31.57;;;;;;;;;;5094210;28;20482;-65
2021/12/13 06:14:56;;;;;;;54.17;31.60;;;;;;;;;;5094096;28;20471;-65
2021/12/13 06:17:29;;;;;;;49.13;28.80;;;;;;;;;;5094715;28;20534;-64
2021/12/13 06:19:57;;;;;;;46.57;30.53;;;;;;;;;;5094306;28;20440;-64
2021/12/13 06:22:26;;;;;;;49.43;29.70;;;;;;;;;;5094413;28;20543;-64
2021/12/13 06:24:55;;;;;;;48.10;31.30;;;;;;;;;;5093851;28;20431;-64
2021/12/13 06:27:23;;;;;;;46.58;27.73;;;;;;;;;;5094135;28;20531;-64
2021/12/13 06:29:59;;;;;;;45.03;27.37;;;;;;;;;;5093979;28;20209;-64
2021/12/13 06:32:32;;;;;;;46.70;29.07;;;;;;;;;;5094120;28;20423;-72
2021/12/13 06:35:00;;;;;;;45.47;28.03;;;;;;;;;;5094368;28;20436;-64
2021/12/13 06:37:29;;;;;;;44.83;30.10;;;;;;;;;;5094116;28;20443;-64
2021/12/13 06:40:10;;;;;;;43.03;27.93;;;;;;;;;;5093769;28;20475;-64
2021/12/13 06:42:38;;;;;;;47.13;29.42;;;;;;;;;;5093915;28;20476;-65
2021/12/13 06:45:18;;;;;;;48.50;32.00;;;;;;;;;;5094215;28;20283;-64
2021/12/13 06:47:51;;;;;;;48.20;29.33;;;;;;;;;;5094381;28;20511;-64
2021/12/13 06:50:24;;;;;;;47.77;32.93;;;;;;;;;;5093941;28;20185;-64
2021/12/13 06:52:51;;;;;;;47.80;32.58;;;;;;;;;;5093523;28;20561;-65
2021/12/13 06:55:20;;;;;;;52.27;32.90;;;;;;;;;;5094686;28;20276;-64
2021/12/13 06:57:48;;;;;;;50.20;32.13;;;;;;;;;;5093439;28;20527;-65
2021/12/13 07:00:19;;;;;;;49.60;30.50;;;;;;;;;;5093750;28;20472;-64
2021/12/13 07:02:48;;;;;;;52.40;34.57;;;;;;;;;;5094171;28;20835;-65
2021/12/13 07:05:17;;;;;;;50.70;32.10;;;;;;;;;;5093755;28;20442;-64
2021/12/13 07:07:51;;;;;;;59.23;33.77;;;;;;;;;;5093608;28;20493;-64
2021/12/13 07:10:19;;;;;;;54.77;31.03;;;;;;;;;;5093973;28;20487;-64
2021/12/13 07:12:50;;;;;;;50.40;30.63;;;;;;;;;;5093621;28;20529;-64
2021/12/13 07:15:28;;;;;;;50.23;32.20;;;;;;;;;;5093915;28;20572;-64
2021/12/13 07:18:07;;;;;;;52.47;33.87;;;;;;;;;;5093199;28;20522;-64
2021/12/13 07:20:38;;;;;;;51.77;31.70;;;;;;;;;;5093099;28;20428;-65
2021/12/13 07:23:05;;;;;;;44.73;30.27;;;;;;;;;;5093630;28;20518;-65
2021/12/13 07:25:37;;;;;;;51.30;31.60;;;;;;;;;;5093446;28;20490;-64
2021/12/13 07:28:04;;;;;;;48.28;30.38;;;;;;;;;;5093610;28;20454;-65
2021/12/13 07:30:34;;;;;;;44.17;28.37;;;;;;;;;;5093087;28;20216;-65
2021/12/13 07:33:03;;;;;;;46.20;29.53;;;;;;;;;;5093393;28;20526;-65
2021/12/13 07:35:32;;;;;;;44.07;29.17;;;;;;;;;;5093372;28;20793;-64
2021/12/13 07:38:00;;;;;;;42.07;27.17;;;;;;;;;;5093526;28;20857;-64
2021/12/13 07:40:40;;;;;;;40.50;25.13;;;;;;;;;;5093141;28;21013;-64
2021/12/13 07:43:15;;;;;;;37.10;26.17;;;;;;;;;;5093687;28;20783;-64
2021/12/13 07:45:57;;;;;;;39.10;24.90;;;;;;;;;;5093094;28;20446;-64
2021/12/13 07:48:29;;;;;;;36.67;25.17;;;;;;;;;;5076946;28;20581;-65
2021/12/13 07:50:58;;;;;;;34.90;24.83;;;;;;;;;;5093106;28;20428;-64
2021/12/13 07:53:27;;;;;;;34.40;24.13;;;;;;;;;;5093332;28;20891;-65
2021/12/13 07:55:54;;;;;;;32.60;23.30;;;;;;;;;;5093317;28;20523;-65
2021/12/13 07:58:33;;;;;;;35.33;24.63;;;;;;;;;;5093050;28;20983;-64
2021/12/13 08:01:08;;;;;;;38.40;21.93;;;;;;;;;;5093076;28;20519;-65
2021/12/13 08:03:44;;;;;;;32.47;22.97;;;;;;;;;;5093685;28;20463;-65
2021/12/13 08:06:11;;;;;;;32.60;21.97;;;;;;;;;;5092884;28;20510;-64
2021/12/13 08:08:48;;;;;;;36.07;22.43;;;;;;;;;;5093093;28;20569;-65
2021/12/13 08:11:18;;;;;;;30.17;19.93;;;;;;;;;;5092840;28;20423;-65
2021/12/13 08:13:56;;;;;;;31.50;20.77;;;;;;;;;;5093206;28;20435;-65
2021/12/13 08:16:30;;;;;;;27.67;20.50;;;;;;;;;;5093221;28;20498;-64
2021/12/13 08:19:07;;;;;;;27.83;20.47;;;;;;;;;;5093688;28;20505;-65
2021/12/13 08:21:40;;;;;;;28.70;20.50;;;;;;;;;;5092739;28;20428;-64
2021/12/13 08:24:08;;;;;;;24.73;17.73;;;;;;;;;;5093103;28;20835;-65
2021/12/13 08:26:37;;;;;;;27.50;16.97;;;;;;;;;;5095280;28;20508;-65
2021/12/13 08:29:09;;;;;;;23.23;18.00;;;;;;;;;;5096507;28;20521;-64
2021/12/13 08:31:39;;;;;;;25.37;17.37;;;;;;;;;;5097022;28;20523;-65
2021/12/13 08:34:09;;;;;;;27.80;17.63;;;;;;;;;;5097199;28;20443;-65
2021/12/13 08:36:39;;;;;;;25.27;17.77;;;;;;;;;;5096602;28;20484;-64
2021/12/13 08:39:07;;;;;;;25.83;17.20;;;;;;;;;;5096491;28;20197;-65
2021/12/13 08:41:41;;;;;;;27.80;18.35;;;;;;;;;;5096445;28;20478;-65
2021/12/13 08:44:16;;;;;;;25.37;17.10;;;;;;;;;;5096760;28;20289;-64
2021/12/13 08:46:44;;;;;;;22.70;17.17;;;;;;;;;;5096704;28;20412;-64
2021/12/13 08:49:22;;;;;;;29.00;18.20;;;;;;;;;;5095977;28;20304;-64
2021/12/13 08:51:55;;;;;;;29.37;17.57;;;;;;;;;;5096426;28;20510;-65
2021/12/13 08:54:23;;;;;;;25.27;16.93;;;;;;;;;;5096806;28;20945;-64
2021/12/13 08:56:52;;;;;;;41.53;25.77;;;;;;;;;;5096172;28;20977;-65
2021/12/13 08:59:23;;;;;;;26.00;16.83;;;;;;;;;;5096085;28;20787;-65
2021/12/13 09:01:53;;;;;;;26.53;18.20;;;;;;;;;;5096544;28;20427;-65
2021/12/13 09:04:26;;;;;;;29.20;19.10;;;;;;;;;;5096328;28;20854;-64
2021/12/13 09:06:55;;;;;;;24.57;17.10;;;;;;;;;;5096158;28;20455;-64
2021/12/13 09:09:23;;;;;;;23.70;16.47;;;;;;;;;;5095862;28;20518;-64
2021/12/13 09:11:55;;;;;;;23.50;16.53;;;;;;;;;;5095837;28;20440;-65
2021/12/13 09:14:25;;;;;;;24.00;15.73;;;;;;;;;;5096136;28;20492;-65
2021/12/13 09:17:06;;;;;;;23.80;16.70;;;;;;;;;;5095369;28;20447;-65
2021/12/13 09:19:36;;;;;;;29.30;17.13;;;;;;;;;;5095904;28;20497;-64
2021/12/13 09:22:08;;;;;;;22.20;16.03;;;;;;;;;;5095309;28;20534;-64
2021/12/13 09:24:39;;;;;;;24.40;16.23;;;;;;;;;;5095814;28;20514;-65
2021/12/13 09:27:11;;;;;;;18.67;14.53;;;;;;;;;;5095519;28;20523;-65
2021/12/13 09:29:47;;;;;;;24.77;15.80;;;;;;;;;;5095362;28;20513;-65
2021/12/13 09:32:15;;;;;;;23.90;16.93;;;;;;;;;;5095931;28;20439;-64
2021/12/13 09:34:44;;;;;;;21.50;16.17;;;;;;;;;;5095064;28;20952;-65
2021/12/13 09:37:12;;;;;;;17.93;13.10;;;;;;;;;;5095207;28;20843;-64
2021/12/13 09:39:40;;;;;;;19.97;14.00;;;;;;;;;;5094999;28;20523;-64
2021/12/13 09:42:08;;;;;;;19.73;15.00;;;;;;;;;;5095115;28;20477;-64
2021/12/13 09:44:44;;;;;;;21.57;14.77;;;;;;;;;;5094980;28;20475;-65
2021/12/13 09:47:12;;;;;;;20.93;14.87;;;;;;;;;;5094928;28;20914;-65
2021/12/13 09:49:40;;;;;;;17.30;13.00;;;;;;;;;;5095076;28;20502;-64
2021/12/13 09:52:11;;;;;;;18.43;14.57;;;;;;;;;;5095145;28;20498;-64
2021/12/13 09:54:40;;;;;;;17.30;14.27;;;;;;;;;;5094740;28;20471;-65
2021/12/13 09:57:10;;;;;;;18.87;14.07;;;;;;;;;;5094594;28;20523;-65
2021/12/13 09:59:40;;;;;;;25.13;14.07;;;;;;;;;;5094902;28;20939;-64
2021/12/13 10:02:11;;;;;;;20.23;14.47;;;;;;;;;;5094711;28;20444;-64
2021/12/13 10:04:39;;;;;;;18.10;14.20;;;;;;;;;;5094477;28;20424;-66
2021/12/13 10:07:08;;;;;;;19.27;13.73;;;;;;;;;;5094670;28;20489;-65
2021/12/13 10:09:41;;;;;;;18.00;13.67;;;;;;;;;;5095198;28;20908;-65
2021/12/13 10:12:10;;;;;;;19.53;14.33;;;;;;;;;;5094719;28;20832;-64
2021/12/13 10:14:39;;;;;;;20.43;14.50;;;;;;;;;;5093972;28;20530;-64
2021/12/13 10:17:07;;;;;;;22.43;14.50;;;;;;;;;;5094805;28;20474;-64
2021/12/13 10:19:36;;;;;;;16.40;12.77;;;;;;;;;;5094814;28;20527;-65
2021/12/13 10:22:04;;;;;;;18.67;13.23;;;;;;;;;;5094219;28;20497;-64
2021/12/13 10:24:34;;;;;;;16.87;13.47;;;;;;;;;;5094390;28;20796;-65
2021/12/13 10:27:05;;;;;;;15.30;12.40;;;;;;;;;;5094599;28;20438;-65
2021/12/13 10:29:33;;;;;;;18.47;13.40;;;;;;;;;;5094458;28;20899;-64
2021/12/13 10:32:02;;;;;;;18.57;13.90;;;;;;;;;;5094876;28;20498;-64
2021/12/13 10:34:30;;;;;;;20.87;14.60;;;;;;;;;;5094210;28;20467;-65
2021/12/13 10:37:02;;;;;;;17.03;12.63;;;;;;;;;;5094207;28;20541;-64
2021/12/13 10:39:32;;;;;;;16.70;12.53;;;;;;;;;;5094393;28;20428;-65
2021/12/13 10:42:02;;;;;;;15.40;11.70;;;;;;;;;;5093844;28;20456;-64
2021/12/13 10:44:31;;;;;;;21.20;11.97;;;;;;;;;;5094667;28;20530;-65
2021/12/13 10:47:01;;;;;;;16.37;12.17;;;;;;;;;;5093654;28;20436;-64
2021/12/13 10:49:29;;;;;;;14.57;11.77;;;;;;;;;;5092972;28;20992;-65
2021/12/13 10:51:58;;;;;;;16.60;12.33;;;;;;;;;;5093958;28;20450;-65
2021/12/13 10:54:27;;;;;;;16.63;12.80;;;;;;;;;;5094493;28;20491;-64
2021/12/13 10:56:56;;;;;;;18.83;12.07;;;;;;;;;;5093550;28;20918;-65
2021/12/13 10:59:25;;;;;;;17.43;12.20;;;;;;;;;;5093787;28;20431;-65
2021/12/13 11:01:55;;;;;;;15.37;11.50;;;;;;;;;;5093495;28;20534;-64
2021/12/13 11:04:24;;;;;;;17.83;11.60;;;;;;;;;;5093839;28;20530;-64
2021/12/13 11:06:52;;;;;;;17.90;12.53;;;;;;;;;;5093782;28;20833;-65
2021/12/13 11:09:25;;;;;;;16.97;12.10;;;;;;;;;;5093694;28;20521;-65
2021/12/13 11:11:57;;;;;;;15.00;11.90;;;;;;;;;;5093503;28;20474;-65
2021/12/13 11:14:25;;;;;;;15.13;11.60;;;;;;;;;;5093511;28;20479;-66
2021/12/13 11:16:56;;;;;;;15.13;13.50;;;;;;;;;;5093628;28;20490;-64
2021/12/13 11:19:26;;;;;;;16.50;12.20;;;;;;;;;;5094145;28;20776;-65
2021/12/13 11:22:01;;;;;;;15.10;11.63;;;;;;;;;;5094135;28;20527;-64
2021/12/13 11:24:29;;;;;;;19.37;12.13;;;;;;;;;;5093598;28;20430;-65
2021/12/13 11:26:58;;;;;;;13.33;11.60;;;;;;;;;;5094066;28;20988;-65
2021/12/13 11:29:25;;;;;;;18.40;12.00;;;;;;;;;;5093581;28;20447;-65
2021/12/13 11:32:07;;;;;;;15.47;11.77;;;;;;;;;;5094104;28;20858;-65
2021/12/13 11:34:52;;;;;;;15.10;11.17;;;;;;;;;;5045591;28;20986;-65
2021/12/13 11:37:43;;;;;;;15.50;11.67;;;;;;;;;;5052871;28;20522;-65
2021/12/13 11:40:24;;;;;;;14.50;11.23;;;;;;;;;;5018734;28;20471;-65
2021/12/13 11:43:12;;;;;;;16.00;12.57;;;;;;;;;;5093930;28;20471;-65
2021/12/13 11:46:03;;;;;;;21.23;11.47;;;;;;;;;;5093039;28;20487;-65
2021/12/13 11:48:49;;;;;;;16.70;11.80;;;;;;;;;;5093819;28;20502;-65
2021/12/13 11:51:31;;;;;;;14.07;11.93;;;;;;;;;;5093051;28;20563;-65
2021/12/13 11:54:16;;;;;;;15.27;10.90;;;;;;;;;;5093101;28;20460;-65
2021/12/13 11:56:52;;;;;;;16.20;11.20;;;;;;;;;;5079964;28;20455;-65
2021/12/13 11:59:33;;;;;;;13.43;10.20;;;;;;;;;;5093654;28;20547;-65
2021/12/13 12:02:13;;;;;;;14.87;11.57;;;;;;;;;;5096956;28;20478;-65
2021/12/13 12:05:04;;;;;;;15.43;10.97;;;;;;;;;;5097593;28;20431;-65
2021/12/13 12:07:51;;;;;;;15.07;11.17;;;;;;;;;;5097228;28;20518;-65
2021/12/13 12:10:37;;;;;;;15.67;9.90;;;;;;;;;;5096735;28;21040;-64
2021/12/13 12:13:19;;;;;;;12.63;9.90;;;;;;;;;;5097186;28;20507;-65
2021/12/13 12:15:47;;;;;;;16.80;11.90;;;;;;;;;;5097029;28;20487;-66
2021/12/13 12:18:16;;;;;;;22.03;10.93;;;;;;;;;;5096955;28;20463;-66
2021/12/13 12:20:45;;;;;;;17.23;12.10;;;;;;;;;;5097025;28;20530;-65
2021/12/13 12:23:13;;;;;;;20.43;11.50;;;;;;;;;;5097157;28;20472;-65
2021/12/13 12:25:41;;;;;;;19.90;12.70;;;;;;;;;;5097181;28;20493;-65
2021/12/13 12:28:18;;;;;;;18.43;13.33;;;;;;;;;;5096759;28;20522;-65
2021/12/13 12:30:48;;;;;;;12.93;10.97;;;;;;;;;;5096677;28;20519;-65
2021/12/13 12:33:21;;;;;;;13.00;10.50;;;;;;;;;;5096924;28;20455;-65
2021/12/13 12:35:48;;;;;;;17.60;11.43;;;;;;;;;;5096935;28;20424;-64
2021/12/13 12:38:23;;;;;;;18.73;12.17;;;;;;;;;;5096599;28;20527;-64
2021/12/13 12:40:54;;;;;;;15.23;11.10;;;;;;;;;;5096514;28;20786;-64
2021/12/13 12:43:22;;;;;;;13.70;10.83;;;;;;;;;;5096166;28;20467;-65
2021/12/13 12:45:52;;;;;;;13.60;10.10;;;;;;;;;;5096662;28;20447;-65
2021/12/13 12:48:25;;;;;;;18.73;11.30;;;;;;;;;;5096409;28;20432;-65
2021/12/13 12:50:57;;;;;;;22.03;11.47;;;;;;;;;;5095967;28;20459;-65
2021/12/13 12:53:26;;;;;;;16.97;11.40;;;;;;;;;;5096344;28;20431;-65
2021/12/13 12:55:55;;;;;;;14.47;10.83;;;;;;;;;;5095847;28;20530;-65
2021/12/13 12:58:24;;;;;;;18.37;12.37;;;;;;;;;;5096132;28;20450;-65
2021/12/13 13:00:54;;;;;;;16.07;12.23;;;;;;;;;;5095894;28;20475;-65
2021/12/13 13:03:24;;;;;;;12.70;10.20;;;;;;;;;;5095771;28;20531;-65
2021/12/13 13:05:51;;;;;;;14.83;11.20;;;;;;;;;;5095750;28;20527;-65
2021/12/13 13:08:28;;;;;;;14.10;9.90;;;;;;;;;;5095780;28;20946;-64
2021/12/13 13:11:26;;;;;;;15.93;11.50;;;;;;;;;;5094862;28;20550;-65
2021/12/13 13:13:49;;;;;;;15.80;10.83;;;;;;;;;;5095395;28;20438;-65
2021/12/13 13:16:19;;;;;;;18.00;10.90;;;;;;;;;;5095278;28;20561;-66
2021/12/13 13:18:47;;;;;;;11.50;9.70;;;;;;;;;;5095487;28;20471;-71
2021/12/13 13:21:18;;;;;;;15.03;9.93;;;;;;;;;;5095395;28;20534;-65
2021/12/13 13:23:47;;;;;;;13.00;9.77;;;;;;;;;;5095460;28;20490;-65
2021/12/13 13:26:17;;;;;;;11.53;9.00;;;;;;;;;;5095628;28;20500;-65
2021/12/13 13:28:46;;;;;;;15.73;9.50;;;;;;;;;;5095312;28;20922;-65
2021/12/13 13:31:16;;;;;;;14.20;9.33;;;;;;;;;;5096067;28;20910;-66
2021/12/13 13:33:46;;;;;;;11.57;9.40;;;;;;;;;;5094602;28;20447;-66
2021/12/13 13:36:16;;;;;;;10.70;9.60;;;;;;;;;;5093979;28;20515;-65
2021/12/13 13:38:44;;;;;;;10.23;8.63;;;;;;;;;;5094298;28;20774;-65
2021/12/13 13:41:12;;;;;;;16.57;9.90;;;;;;;;;;5094499;28;20505;-66
2021/12/13 13:43:42;;;;;;;15.70;9.07;;;;;;;;;;5094242;28;20956;-66
2021/12/13 13:46:10;;;;;;;10.00;8.97;;;;;;;;;;5094277;28;20452;-66
2021/12/13 13:48:39;;;;;;;11.87;9.13;;;;;;;;;;5094444;28;20444;-65
2021/12/13 13:51:09;;;;;;;12.80;9.40;;;;;;;;;;5094424;28;20949;-65
2021/12/13 13:53:39;;;;;;;12.10;10.00;;;;;;;;;;5094399;28;20484;-65
2021/12/13 13:56:10;;;;;;;10.40;8.13;;;;;;;;;;5093972;28;20500;-65
2021/12/13 13:58:39;;;;;;;12.10;8.83;;;;;;;;;;5094440;28;20479;-65
2021/12/13 14:01:09;;;;;;;10.90;8.30;;;;;;;;;;5094118;28;20540;-65
2021/12/13 14:03:38;;;;;;;11.50;9.43;;;;;;;;;;5093610;28;20467;-65
2021/12/13 14:06:07;;;;;;;13.90;9.07;;;;;;;;;;5094396;28;20527;-65
2021/12/13 14:08:36;;;;;;;14.37;10.47;;;;;;;;;;5093690;28;20448;-70
2021/12/13 14:11:05;;;;;;;15.60;9.30;;;;;;;;;;5093193;28;20573;-69
2021/12/13 14:13:34;;;;;;;17.50;11.20;;;;;;;;;;5094045;28;20436;-68
2021/12/13 14:16:09;;;;;;;11.33;8.27;;;;;;;;;;5093230;28;20567;-66
2021/12/13 14:18:36;;;;;;;14.50;9.37;;;;;;;;;;5093529;28;20463;-68
2021/12/13 14:21:10;;;;;;;9.30;7.50;;;;;;;;;;5093785;28;20531;-66
2021/12/13 14:23:39;;;;;;;12.03;8.87;;;;;;;;;;5092930;28;20432;-72
2021/12/13 14:26:08;;;;;;;10.47;9.17;;;;;;;;;;5094067;28;20485;-65
2021/12/13 14:28:36;;;;;;;12.70;8.53;;;;;;;;;;5094689;28;20441;-65
2021/12/13 14:31:05;;;;;;;13.03;9.20;;;;;;;;;;5093959;28;20558;-65
2021/12/13 14:33:33;;;;;;;9.37;8.30;;;;;;;;;;5093572;28;20476;-66
2021/12/13 14:36:02;;;;;;;11.73;8.93;;;;;;;;;;5093534;28;20467;-65
2021/12/13 14:38:36;;;;;;;17.20;8.37;;;;;;;;;;5092340;28;20479;-66
2021/12/13 14:41:06;;;;;;;8.40;7.50;;;;;;;;;;5093812;28;20489;-66
2021/12/13 14:43:40;;;;;;;9.50;7.77;;;;;;;;;;5093164;28;20456;-66